Time;durP1;ratioP1;P1;durP2;ratioP2;P2;SDS_P1;SDS_P2;PMS_P1;PMS_P2;Temp;Humidity;BMP_temperature;BMP_pressure;BME280_temperature;BME280_humidity;BME280_pressure;Samples;Min_cycle;Max_cycle;Signal;HPM_P1;HPM_P2
2021/05/30 00:02:20;;;;;;;4.78;4.38;;;10.50;99.90;;;;;;5043927;28;20231;-67
2021/05/30 00:04:47;;;;;;;6.32;4.82;;;10.50;99.90;;;;;;5056295;28;20309;-68
2021/05/30 00:07:14;;;;;;;6.63;5.72;;;10.50;99.90;;;;;;5062000;28;20273;-68
2021/05/30 00:09:41;;;;;;;5.97;4.43;;;10.50;99.90;;;;;;5052762;28;20249;-68
2021/05/30 00:12:09;;;;;;;5.22;4.53;;;10.50;99.90;;;;;;5052182;28;20229;-68
2021/05/30 00:14:36;;;;;;;7.07;4.20;;;10.40;99.90;;;;;;5052865;28;20209;-68
2021/05/30 00:17:05;;;;;;;5.80;5.25;;;10.30;99.90;;;;;;5061093;28;20428;-69
2021/05/30 00:19:32;;;;;;;4.78;4.00;;;10.30;99.90;;;;;;5061338;28;20789;-68
2021/05/30 00:21:59;;;;;;;5.03;4.55;;;10.30;99.90;;;;;;5057482;28;20247;-69
2021/05/30 00:24:26;;;;;;;5.63;4.78;;;10.30;99.90;;;;;;5059217;28;20499;-69
2021/05/30 00:26:53;;;;;;;5.53;4.65;;;10.40;99.90;;;;;;5058561;28;20209;-68
2021/05/30 00:29:20;;;;;;;6.05;4.57;;;10.40;99.90;;;;;;5060765;28;20209;-68
2021/05/30 00:31:47;;;;;;;5.05;4.57;;;10.40;99.90;;;;;;5060595;28;20212;-69
2021/05/30 00:34:15;;;;;;;7.95;5.07;;;10.40;99.90;;;;;;5061154;28;20813;-69
2021/05/30 00:36:42;;;;;;;4.80;3.95;;;10.40;99.90;;;;;;5060619;28;20223;-69
2021/05/30 00:39:09;;;;;;;4.20;3.78;;;10.40;99.90;;;;;;5059464;28;20209;-68
2021/05/30 00:41:36;;;;;;;6.10;5.13;;;10.40;99.90;;;;;;5043385;28;20250;-68
2021/05/30 00:44:24;;;;;;;4.93;4.43;;;10.50;99.90;;;;;;5052449;28;20243;-68
2021/05/30 00:46:52;;;;;;;4.65;3.72;;;10.50;99.90;;;;;;5054455;28;20691;-69
2021/05/30 00:49:20;;;;;;;5.90;4.65;;;10.40;99.90;;;;;;5054744;28;20269;-70
2021/05/30 00:51:48;;;;;;;4.13;3.72;;;10.50;99.90;;;;;;5054442;28;20209;-67
2021/05/30 00:54:15;;;;;;;6.07;5.18;;;10.40;99.90;;;;;;5060315;28;20205;-67
2021/05/30 00:56:43;;;;;;;6.35;5.75;;;10.30;99.90;;;;;;5052904;28;20209;-68
2021/05/30 00:59:11;;;;;;;6.53;4.90;;;10.30;99.90;;;;;;5056832;28;20351;-69
2021/05/30 01:01:39;;;;;;;7.13;4.97;;;10.30;99.90;;;;;;5059551;28;20222;-68
2021/05/30 01:04:07;;;;;;;5.70;5.13;;;10.20;99.90;;;;;;5055747;28;20246;-67
2021/05/30 01:06:35;;;;;;;6.93;4.68;;;10.20;99.90;;;;;;5059305;28;20210;-69
2021/05/30 01:09:03;;;;;;;4.95;4.47;;;10.10;99.90;;;;;;5060974;28;20259;-67
2021/05/30 01:11:31;;;;;;;5.10;4.55;;;10.10;99.90;;;;;;5054659;28;20428;-69
2021/05/30 01:13:59;;;;;;;4.85;4.35;;;10.10;99.90;;;;;;5058771;28;20236;-68
2021/05/30 01:16:28;;;;;;;6.40;4.82;;;10.10;99.90;;;;;;5059933;28;20212;-68
2021/05/30 01:18:58;;;;;;;7.30;5.65;;;10.00;99.90;;;;;;5060145;28;20213;-68
2021/05/30 01:21:27;;;;;;;7.40;5.20;;;10.10;99.90;;;;;;5058264;28;20198;-69
2021/05/30 01:23:57;;;;;;;5.50;5.00;;;10.00;99.90;;;;;;5059537;28;20218;-69
2021/05/30 01:26:24;;;;;;;6.43;4.90;;;;;;;;;;5092582;28;20428;-70
2021/05/30 01:28:52;;;;;;;5.88;5.35;;;10.00;99.90;;;;;;5059879;28;20209;-67
2021/05/30 01:31:20;;;;;;;7.15;5.50;;;10.00;99.90;;;;;;5060450;28;20244;-67
2021/05/30 01:33:47;;;;;;;8.55;6.25;;;10.00;99.90;;;;;;5046941;28;20233;-68
2021/05/30 01:36:15;;;;;;;6.78;5.90;;;;;;;;;;5053768;28;20251;-68
2021/05/30 01:38:42;;;;;;;5.68;5.18;;;;;;;;;;5051280;28;20202;-67
2021/05/30 01:41:09;;;;;;;7.38;6.55;;;9.90;99.90;;;;;;5046065;28;20245;-67
2021/05/30 01:43:37;;;;;;;7.38;5.25;;;10.00;99.90;;;;;;5058054;28;20209;-68
2021/05/30 01:46:04;;;;;;;8.52;6.60;;;;;;;;;;5060530;28;20284;-69
2021/05/30 01:48:31;;;;;;;8.10;7.40;;;9.90;99.90;;;;;;5055541;28;20214;-68
2021/05/30 01:50:58;;;;;;;6.90;6.13;;;10.30;99.90;;;;;;5059788;28;20213;-69
2021/05/30 01:53:39;;;;;;;6.80;6.05;;;;;;;;;;5059484;28;20291;-67
2021/05/30 01:58:34;;;;;;;6.93;6.10;;;10.30;99.90;;;;;;5045134;28;20558;-67
2021/05/30 02:01:02;;;;;;;7.20;6.47;;;;;;;;;;5057011;28;20548;-68
2021/05/30 02:03:30;;;;;;;8.00;7.22;;;9.90;99.90;;;;;;5058449;28;20213;-68
2021/05/30 02:05:59;;;;;;;8.57;6.53;;;10.00;99.90;;;;;;5059781;28;20255;-67
2021/05/30 02:08:27;;;;;;;6.28;5.32;;;9.90;99.90;;;;;;5051585;28;20693;-68
2021/05/30 02:10:55;;;;;;;9.70;6.63;;;9.90;99.90;;;;;;5058475;28;20247;-68
2021/05/30 02:13:25;;;;;;;5.82;4.50;;;9.90;99.90;;;;;;5058056;28;20336;-69
2021/05/30 02:15:53;;;;;;;6.13;4.90;;;9.90;99.90;;;;;;5059454;28;20715;-68
2021/05/30 02:18:20;;;;;;;4.70;4.30;;;9.80;99.90;;;;;;5050968;28;20205;-68
2021/05/30 02:20:47;;;;;;;3.95;3.55;;;9.80;99.90;;;;;;5058357;28;20208;-68
2021/05/30 02:23:15;;;;;;;3.50;3.20;;;9.90;99.90;;;;;;5058439;28;20235;-68
2021/05/30 02:25:42;;;;;;;3.50;3.20;;;9.80;99.90;;;;;;5059198;28;20213;-67
2021/05/30 02:28:09;;;;;;;4.03;3.63;;;9.80;99.90;;;;;;5058854;28;20202;-67
2021/05/30 02:30:36;;;;;;;3.42;3.13;;;9.90;99.90;;;;;;5049480;28;20252;-69
2021/05/30 02:33:04;;;;;;;6.93;2.50;;;9.90;99.90;;;;;;5050133;28;20240;-70
2021/05/30 02:35:31;;;;;;;3.70;2.83;;;9.90;99.90;;;;;;5045442;28;20511;-68
2021/05/30 02:37:58;;;;;;;4.85;3.05;;;9.80;99.90;;;;;;5058915;28;20280;-68
2021/05/30 02:40:25;;;;;;;4.25;3.85;;;9.90;99.90;;;;;;5045313;28;20685;-68
2021/05/30 02:42:53;;;;;;;3.90;3.50;;;9.80;99.90;;;;;;5052316;28;20209;-68
2021/05/30 02:45:20;;;;;;;3.42;2.95;;;9.80;99.90;;;;;;5052256;28;20212;-68
2021/05/30 02:47:47;;;;;;;4.15;3.53;;;9.80;99.90;;;;;;5057468;28;20500;-67
2021/05/30 02:50:15;;;;;;;4.03;2.80;;;9.80;99.90;;;;;;5047324;28;20213;-70
2021/05/30 02:52:42;;;;;;;5.30;3.47;;;9.80;99.90;;;;;;5056322;28;20233;-68
2021/05/30 02:55:09;;;;;;;5.05;2.50;;;9.80;99.90;;;;;;5058746;28;20463;-68
2021/05/30 02:57:36;;;;;;;3.45;3.15;;;9.80;99.90;;;;;;5056934;28;20214;-68
2021/05/30 03:00:06;;;;;;;3.95;3.00;;;9.80;99.90;;;;;;5058954;28;20212;-66
2021/05/30 03:02:33;;;;;;;3.97;3.30;;;9.80;99.90;;;;;;5058003;28;20215;-69
2021/05/30 03:05:00;;;;;;;4.43;3.80;;;9.80;99.90;;;;;;5058144;28;20250;-68
2021/05/30 03:07:28;;;;;;;4.05;3.10;;;9.90;99.90;;;;;;5051591;28;20231;-67
2021/05/30 03:09:55;;;;;;;4.00;2.88;;;10.00;99.90;;;;;;5058183;28;20438;-68
2021/05/30 03:12:22;;;;;;;4.15;3.45;;;10.00;99.90;;;;;;5047371;28;20229;-68
2021/05/30 03:14:50;;;;;;;4.40;4.00;;;;;;;;;;5055641;28;20200;-67
2021/05/30 03:17:17;;;;;;;3.47;3.17;;;;;;;;;;5054543;28;20214;-68
2021/05/30 03:19:44;;;;;;;5.38;4.18;;;10.10;99.90;;;;;;5046970;28;20247;-67
2021/05/30 03:22:11;;;;;;;4.28;3.15;;;10.00;99.90;;;;;;5046392;28;20213;-67
2021/05/30 03:24:38;;;;;;;4.60;3.65;;;10.00;99.90;;;;;;5057728;28;20245;-67
2021/05/30 03:27:06;;;;;;;3.15;2.92;;;9.90;99.90;;;;;;5046759;28;20561;-67
2021/05/30 03:29:32;;;;;;;4.13;2.53;;;10.00;99.90;;;;;;5051628;28;20208;-68
2021/05/30 03:31:59;;;;;;;4.57;2.83;;;10.00;99.90;;;;;;5052959;28;20406;-69
2021/05/30 03:34:27;;;;;;;2.53;2.33;;;10.00;99.90;;;;;;5052763;28;20244;-67
2021/05/30 03:36:56;;;;;;;3.83;3.20;;;10.00;99.90;;;;;;5041465;28;20209;-68
2021/05/30 03:39:25;;;;;;;3.55;3.25;;;;;;;;;;5043797;28;20209;-69
2021/05/30 03:41:55;;;;;;;3.70;2.95;;;10.00;99.90;;;;;;5050183;28;20430;-67
2021/05/30 03:44:22;;;;;;;2.83;2.35;;;10.00;99.90;;;;;;5046739;28;20643;-68
2021/05/30 03:46:49;;;;;;;4.07;2.95;;;10.00;99.90;;;;;;5057997;28;20205;-67
2021/05/30 03:49:16;;;;;;;4.72;2.63;;;;;;;;;;5046317;28;20251;-68
2021/05/30 03:51:43;;;;;;;3.97;2.45;;;10.10;99.90;;;;;;5058108;28;20205;-66
2021/05/30 03:54:11;;;;;;;4.45;3.45;;;;;;;;;;5057097;28;20286;-68
2021/05/30 03:56:38;;;;;;;4.18;3.70;;;;;;;;;;5056516;28;20208;-67
2021/05/30 03:59:05;;;;;;;4.43;2.47;;;;;;;;;;5057800;28;20213;-68
2021/05/30 04:01:35;;;;;;;4.88;3.50;;;;;;;;;;5043746;28;20258;-68
2021/05/30 04:04:03;;;;;;;4.22;3.60;;;;;;;;;;5057640;28;20206;-67
2021/05/30 04:06:30;;;;;;;3.05;2.78;;;;;;;;;;5056024;28;20216;-67
2021/05/30 04:08:58;;;;;;;3.85;3.55;;;;;;;;;;5045461;28;20215;-70
2021/05/30 04:11:25;;;;;;;5.00;4.15;;;;;;;;;;5054372;28;20214;-67
2021/05/30 04:13:52;;;;;;;4.75;3.42;;;10.10;99.90;;;;;;5057391;28;20607;-67
2021/05/30 04:16:19;;;;;;;4.03;3.55;;;10.10;99.90;;;;;;5057255;28;20569;-69
2021/05/30 04:18:47;;;;;;;4.07;3.60;;;10.10;99.90;;;;;;5057423;28;20208;-68
2021/05/30 04:21:14;;;;;;;4.10;3.70;;;10.20;99.90;;;;;;5057495;28;20255;-67
2021/05/30 04:23:41;;;;;;;3.75;3.30;;;;;;;;;;5057262;28;20213;-68
2021/05/30 04:26:08;;;;;;;3.65;3.35;;;12.10;99.90;;;;;;5057418;28;20431;-67
2021/05/30 04:28:35;;;;;;;3.13;2.83;;;10.20;99.90;;;;;;5056949;28;20231;-67
2021/05/30 04:31:03;;;;;;;3.75;3.30;;;;;;;;;;5057063;28;20331;-68
2021/05/30 04:33:30;;;;;;;4.13;3.55;;;;;;;;;;5053636;28;20226;-68
2021/05/30 04:35:57;;;;;;;5.10;3.78;;;10.40;99.90;;;;;;5056692;28;20228;-67
2021/05/30 04:38:24;;;;;;;3.95;3.25;;;10.50;99.90;;;;;;5056433;28;20209;-69
2021/05/30 04:40:52;;;;;;;4.25;3.63;;;;;;;;;;5051711;28;20485;-68
2021/05/30 04:43:19;;;;;;;4.07;3.40;;;10.60;99.90;;;;;;5052717;28;20263;-69
2021/05/30 04:45:46;;;;;;;5.38;4.88;;;11.40;99.90;;;;;;5053865;28;20496;-68
2021/05/30 04:48:13;;;;;;;4.63;4.20;;;;;;;;;;5056956;28;20240;-68
2021/05/30 04:50:41;;;;;;;4.00;2.92;;;;;;;;;;5052161;28;20260;-67
2021/05/30 04:53:08;;;;;;;5.45;4.93;;;10.80;99.90;;;;;;5056897;28;20240;-69
2021/05/30 04:55:35;;;;;;;4.57;4.18;;;10.80;99.90;;;;;;5057117;28;20367;-67
2021/05/30 04:58:02;;;;;;;3.72;3.42;;;10.80;99.90;;;;;;5055745;28;20211;-67
2021/05/30 05:00:30;;;;;;;6.05;5.47;;;10.90;99.90;;;;;;5054403;28;20251;-67
2021/05/30 05:02:57;;;;;;;6.53;4.45;;;10.90;99.90;;;;;;5053842;28;20237;-68
2021/05/30 05:05:28;;;;;;;6.03;4.80;;;;;;;;;;5057070;28;20277;-68
2021/05/30 05:07:55;;;;;;;4.30;3.90;;;12.00;99.90;;;;;;5056760;28;20231;-65
2021/05/30 05:10:22;;;;;;;3.63;3.33;;;12.10;99.90;;;;;;5059734;28;20294;-70
2021/05/30 05:12:49;;;;;;;4.65;4.15;;;12.30;99.90;;;;;;5053819;28;20256;-67
2021/05/30 05:15:16;;;;;;;4.63;4.18;;;12.60;99.90;;;;;;5059368;28;20206;-68
2021/05/30 05:17:43;;;;;;;3.60;3.40;;;12.60;99.90;;;;;;5059255;28;20265;-68
2021/05/30 05:20:11;;;;;;;4.68;4.15;;;12.70;99.90;;;;;;5058770;28;20289;-67
2021/05/30 05:22:38;;;;;;;4.40;3.75;;;12.80;99.90;;;;;;5044770;28;20451;-67
2021/05/30 05:25:06;;;;;;;2.70;2.47;;;12.60;99.90;;;;;;5054006;28;20222;-68
2021/05/30 05:27:33;;;;;;;4.35;4.05;;;;;;;;;;5057105;28;20559;-67
2021/05/30 05:30:01;;;;;;;4.00;3.30;;;;;;;;;;5050810;28;20230;-66
2021/05/30 05:32:28;;;;;;;3.13;2.83;;;;;;;;;;5057011;28;20254;-67
2021/05/30 05:34:55;;;;;;;3.33;3.13;;;12.60;99.90;;;;;;5059608;28;20276;-69
2021/05/30 05:37:22;;;;;;;4.18;3.78;;;12.60;99.90;;;;;;5049305;28;20460;-67
2021/05/30 05:39:49;;;;;;;3.45;3.17;;;12.50;99.90;;;;;;5043681;28;20218;-68
2021/05/30 05:42:16;;;;;;;2.67;2.45;;;;;;;;;;5053774;28;20239;-67
2021/05/30 05:44:43;;;;;;;2.83;2.60;;;12.60;99.90;;;;;;5055177;28;20211;-68
2021/05/30 05:47:10;;;;;;;2.70;2.55;;;12.70;99.90;;;;;;5042809;28;20753;-67
2021/05/30 05:49:38;;;;;;;3.42;2.72;;;12.70;99.90;;;;;;5055904;28;20200;-70
2021/05/30 05:52:05;;;;;;;3.72;3.42;;;12.60;99.90;;;;;;5043382;28;20262;-70
2021/05/30 05:54:51;;;;;;;4.45;3.10;;;12.70;99.90;;;;;;5042795;28;20273;-69
2021/05/30 05:57:18;;;;;;;3.88;3.58;;;12.50;99.90;;;;;;5042246;28;20246;-68
2021/05/30 05:59:45;;;;;;;3.95;3.60;;;12.30;99.90;;;;;;5056563;28;20589;-68
2021/05/30 06:02:13;;;;;;;2.92;2.72;;;12.10;99.90;;;;;;5042132;28;20257;-69
2021/05/30 06:04:42;;;;;;;4.95;4.55;;;11.60;99.90;;;;;;5053620;28;20211;-68
2021/05/30 06:07:10;;;;;;;3.30;3.03;;;;;;;;;;5060236;28;20210;-67
2021/05/30 06:09:37;;;;;;;4.07;3.15;;;;;;;;;;5053450;28;20277;-67
2021/05/30 06:12:05;;;;;;;3.20;3.00;;;11.50;99.90;;;;;;5056855;28;20536;-66
2021/05/30 06:14:32;;;;;;;4.43;3.58;;;11.60;99.90;;;;;;5046384;28;20370;-68
2021/05/30 06:16:59;;;;;;;3.65;3.35;;;11.60;99.90;;;;;;5050362;28;20497;-68
2021/05/30 06:19:27;;;;;;;4.03;3.72;;;11.80;99.90;;;;;;5059234;28;20264;-67
2021/05/30 06:22:00;;;;;;;3.30;3.00;;;12.20;99.90;;;;;;5044150;28;20231;-68
2021/05/30 06:24:27;;;;;;;3.15;2.92;;;;;;;;;;5058581;28;20293;-67
2021/05/30 06:26:56;;;;;;;2.65;2.45;;;12.70;99.90;;;;;;5058292;28;20437;-68
2021/05/30 06:29:23;;;;;;;4.85;2.78;;;;;;;;;;5058039;28;20252;-69
2021/05/30 06:31:50;;;;;;;3.92;3.55;;;12.10;99.90;;;;;;5058799;28;20218;-67
2021/05/30 06:34:23;;;;;;;3.80;3.20;;;12.20;99.90;;;;;;5056399;28;20242;-67
2021/05/30 06:36:50;;;;;;;3.22;2.97;;;12.00;99.90;;;;;;5058946;28;20260;-70
2021/05/30 06:39:17;;;;;;;3.00;2.60;;;12.60;99.90;;;;;;5058381;28;20260;-68
2021/05/30 06:41:44;;;;;;;5.78;3.08;;;;;;;;;;5090950;28;20296;-69
2021/05/30 06:44:12;;;;;;;2.70;2.47;;;11.00;99.90;;;;;;5057892;28;20429;-69
2021/05/30 06:46:39;;;;;;;2.20;2.03;;;13.80;99.90;;;;;;5057033;28;20203;-69
2021/05/30 06:49:06;;;;;;;3.75;2.85;;;13.80;99.90;;;;;;5058967;28;20208;-69
2021/05/30 06:51:33;;;;;;;2.13;2.03;;;13.30;99.90;;;;;;5055491;28;20204;-67
2021/05/30 06:54:02;;;;;;;2.78;2.58;;;12.80;99.90;;;;;;5057117;28;20405;-67
2021/05/30 06:56:30;;;;;;;2.70;2.50;;;12.40;99.90;;;;;;5055925;28;20576;-71
2021/05/30 06:58:59;;;;;;;1.83;1.73;;;12.50;99.90;;;;;;5058431;28;20282;-70
2021/05/30 07:01:26;;;;;;;1.70;1.60;;;12.50;99.90;;;;;;5056213;28;20230;-67
2021/05/30 07:03:53;;;;;;;3.28;2.80;;;12.70;99.90;;;;;;5057233;28;20278;-67
2021/05/30 07:06:22;;;;;;;2.13;2.03;;;12.60;99.90;;;;;;5051393;28;20425;-69
2021/05/30 07:08:50;;;;;;;1.90;1.80;;;12.70;99.90;;;;;;5049655;28;20207;-67
2021/05/30 07:11:17;;;;;;;2.45;2.35;;;13.10;99.90;;;;;;5058002;28;20218;-70
2021/05/30 07:13:44;;;;;;;2.17;1.98;;;13.20;99.90;;;;;;5048335;28;20231;-67
2021/05/30 07:16:11;;;;;;;2.97;2.70;;;12.90;99.90;;;;;;5045691;28;20522;-69
2021/05/30 07:18:40;;;;;;;3.00;2.75;;;12.80;99.90;;;;;;5056414;28;20210;-69
2021/05/30 07:21:07;;;;;;;3.15;2.70;;;12.50;99.90;;;;;;5058288;28;20501;-66
2021/05/30 07:23:36;;;;;;;2.80;2.60;;;12.50;99.90;;;;;;5046694;28;20214;-69
2021/05/30 07:26:04;;;;;;;3.60;3.30;;;12.20;99.90;;;;;;5050813;28;20245;-68
2021/05/30 07:28:31;;;;;;;3.05;2.58;;;12.10;99.90;;;;;;5051686;28;20211;-68
2021/05/30 07:30:58;;;;;;;3.00;2.80;;;12.20;99.90;;;;;;5043134;28;20200;-68
2021/05/30 07:33:26;;;;;;;3.55;3.10;;;12.10;99.90;;;;;;5039977;28;20269;-68
2021/05/30 07:35:53;;;;;;;3.60;3.30;;;12.40;99.90;;;;;;5083318;28;20222;-68
2021/05/30 07:38:21;;;;;;;4.10;3.80;;;12.40;99.90;;;;;;5048658;28;20208;-67
2021/05/30 07:40:49;;;;;;;3.35;2.83;;;12.30;99.90;;;;;;5055900;28;20233;-70
2021/05/30 07:43:16;;;;;;;4.47;3.97;;;12.30;99.90;;;;;;5040053;28;20203;-69
2021/05/30 07:45:44;;;;;;;3.50;3.20;;;;;;;;;;5054142;28;20361;-69
2021/05/30 07:48:11;;;;;;;4.82;4.38;;;12.50;99.90;;;;;;5055160;28;20238;-68
2021/05/30 07:50:38;;;;;;;3.90;3.60;;;;;;;;;;5056458;28;20205;-69
2021/05/30 07:53:05;;;;;;;3.63;3.33;;;12.30;99.90;;;;;;5052562;28;20289;-69
2021/05/30 07:55:33;;;;;;;3.30;3.05;;;;;;;;;;5054999;28;20369;-67
2021/05/30 07:58:00;;;;;;;3.03;2.78;;;12.10;99.90;;;;;;5056039;28;20206;-67
2021/05/30 08:00:27;;;;;;;5.28;3.40;;;12.10;99.90;;;;;;5056299;28;20206;-69
2021/05/30 08:02:54;;;;;;;3.42;3.15;;;11.80;99.90;;;;;;5056109;28;20210;-68
2021/05/30 08:05:22;;;;;;;3.30;3.10;;;;;;;;;;5053979;28;20639;-70
2021/05/30 08:07:50;;;;;;;3.80;3.50;;;11.50;99.90;;;;;;5057133;28;20504;-69
2021/05/30 08:10:21;;;;;;;4.25;3.47;;;11.60;99.90;;;;;;5053078;28;20516;-69
2021/05/30 08:12:49;;;;;;;3.25;2.97;;;11.60;99.90;;;;;;5054801;28;20217;-69
2021/05/30 08:15:21;;;;;;;3.45;2.97;;;11.60;99.90;;;;;;5055452;28;20226;-67
2021/05/30 08:17:51;;;;;;;4.47;4.07;;;11.60;99.90;;;;;;5056804;28;20447;-70
2021/05/30 08:20:20;;;;;;;5.95;3.92;;;11.60;99.90;;;;;;5055631;28;20264;-67
2021/05/30 08:22:47;;;;;;;3.95;3.30;;;11.60;99.90;;;;;;5060301;28;20206;-70
2021/05/30 08:25:16;;;;;;;3.63;3.33;;;11.80;99.90;;;;;;5060834;28;20210;-67
2021/05/30 08:27:44;;;;;;;4.30;3.50;;;11.80;99.90;;;;;;5048529;28;20269;-68
2021/05/30 08:30:12;;;;;;;2.97;2.70;;;11.80;99.90;;;;;;5060650;28;20210;-69
2021/05/30 08:32:39;;;;;;;3.88;3.47;;;13.10;99.90;;;;;;5057507;28;20366;-69
2021/05/30 08:35:07;;;;;;;4.00;3.70;;;11.80;99.90;;;;;;5058349;28;20537;-69
2021/05/30 08:37:35;;;;;;;4.38;3.78;;;11.90;99.90;;;;;;5058092;28;20206;-68
2021/05/30 08:40:03;;;;;;;3.15;2.83;;;12.10;99.90;;;;;;5059563;28;20282;-69
2021/05/30 08:42:31;;;;;;;3.70;3.50;;;12.30;99.90;;;;;;5057567;28;20262;-67
2021/05/30 08:44:58;;;;;;;3.67;3.10;;;12.20;99.90;;;;;;5059047;28;20257;-70
2021/05/30 08:47:25;;;;;;;3.85;3.55;;;12.30;99.90;;;;;;5060264;28;20509;-70
2021/05/30 08:49:52;;;;;;;3.13;2.83;;;12.40;99.90;;;;;;5058134;28;20398;-68
2021/05/30 08:52:19;;;;;;;5.25;3.38;;;12.50;99.90;;;;;;5060119;28;20719;-68
2021/05/30 08:54:47;;;;;;;3.15;2.95;;;12.70;99.90;;;;;;5060429;28;20219;-69
2021/05/30 08:57:14;;;;;;;3.75;2.78;;;13.00;99.90;;;;;;5060589;28;20207;-67
2021/05/30 08:59:55;;;;;;;3.75;3.35;;;13.10;99.90;;;;;;5059982;28;20203;-69
2021/05/30 09:02:23;;;;;;;5.75;2.65;;;13.10;99.90;;;;;;5060792;28;20237;-70
2021/05/30 09:04:56;;;;;;;3.83;3.53;;;13.00;99.90;;;;;;5061094;28;20437;-68
2021/05/30 09:07:41;;;;;;;3.63;3.13;;;12.80;99.90;;;;;;5058978;28;20211;-69
2021/05/30 09:10:11;;;;;;;3.40;3.10;;;13.00;99.90;;;;;;5075737;28;20234;-70
2021/05/30 09:13:15;;;;;;;3.53;3.25;;;13.30;99.90;;;;;;5068832;28;20298;-70
2021/05/30 09:18:33;;;;;;;4.00;3.70;;;13.20;99.90;;;;;;5059807;28;20203;-69
2021/05/30 09:21:03;;;;;;;4.50;4.10;;;13.10;99.90;;;;;;5060633;28;20204;-70
2021/05/30 09:23:42;;;;;;;3.70;3.35;;;13.10;99.90;;;;;;5059754;28;20207;-68
2021/05/30 09:26:20;;;;;;;3.28;3.03;;;13.40;99.90;;;;;;5058974;28;20272;-69
2021/05/30 09:29:04;;;;;;;4.47;4.07;;;14.00;99.90;;;;;;5058350;28;20222;-68
2021/05/30 09:31:33;;;;;;;4.22;3.92;;;14.40;99.90;;;;;;5058821;28;20625;-69
2021/05/30 09:34:20;;;;;;;3.67;3.35;;;14.60;99.90;;;;;;5056456;28;20612;-69
2021/05/30 09:36:51;;;;;;;3.70;3.40;;;14.50;99.90;;;;;;5055709;28;20204;-69
2021/05/30 09:39:35;;;;;;;3.97;3.60;;;14.50;99.90;;;;;;5057340;28;20211;-68
2021/05/30 09:42:39;;;;;;;3.95;3.65;;;14.70;99.90;;;;;;5058997;28;20482;-67
2021/05/30 09:45:13;;;;;;;4.95;3.55;;;15.40;99.90;;;;;;5058865;28;20514;-68
2021/05/30 09:47:44;;;;;;;4.10;3.83;;;15.40;98.80;;;;;;5059166;28;20474;-68
2021/05/30 09:50:17;;;;;;;3.88;3.58;;;15.70;98.60;;;;;;5054062;28;20207;-69
2021/05/30 09:52:50;;;;;;;4.35;3.95;;;15.50;98.80;;;;;;5058011;28;20218;-69
2021/05/30 09:55:26;;;;;;;4.30;4.00;;;15.70;98.60;;;;;;5059098;28;20245;-69
2021/05/30 09:58:15;;;;;;;4.93;4.35;;;15.70;98.90;;;;;;5058566;28;20215;-69
2021/05/30 10:00:44;;;;;;;3.10;2.90;;;15.10;99.10;;;;;;5052135;28;20208;-70
2021/05/30 10:03:11;;;;;;;3.67;3.38;;;14.60;99.90;;;;;;5058689;28;20199;-68
2021/05/30 10:05:38;;;;;;;3.70;3.40;;;14.80;99.00;;;;;;5058933;28;20279;-69
2021/05/30 10:08:05;;;;;;;3.22;3.03;;;15.00;98.00;;;;;;5059581;28;20204;-69
2021/05/30 10:10:33;;;;;;;3.83;3.53;;;16.10;97.70;;;;;;5058872;28;20215;-68
2021/05/30 10:13:01;;;;;;;3.03;2.83;;;16.60;97.30;;;;;;5059019;28;20208;-68
2021/05/30 10:15:29;;;;;;;3.88;3.55;;;;;;;;;;5057149;28;20260;-67
2021/05/30 10:18:10;;;;;;;3.85;3.55;;;16.30;96.70;;;;;;5057512;28;20211;-68
2021/05/30 10:20:39;;;;;;;4.10;3.70;;;15.80;98.00;;;;;;5056549;28;20217;-68
2021/05/30 10:23:08;;;;;;;4.25;3.88;;;15.40;98.70;;;;;;5048931;28;20203;-68
2021/05/30 10:25:37;;;;;;;3.95;3.53;;;15.20;99.30;;;;;;5058419;28;20234;-68
2021/05/30 10:28:20;;;;;;;4.03;3.72;;;16.10;98.70;;;;;;5060789;28;20503;-67
2021/05/30 10:30:50;;;;;;;4.90;4.50;;;16.90;96.40;;;;;;5049287;28;20248;-67
2021/05/30 10:33:22;;;;;;;4.10;3.80;;;17.70;95.90;;;;;;5046430;28;20435;-68
2021/05/30 10:35:52;;;;;;;3.20;3.00;;;17.80;94.60;;;;;;5047887;28;20495;-68
2021/05/30 10:38:45;;;;;;;3.47;3.23;;;18.00;94.40;;;;;;5049046;28;20415;-68
2021/05/30 10:41:19;;;;;;;4.10;3.80;;;18.40;93.30;;;;;;5052837;28;20503;-69
2021/05/30 10:43:47;;;;;;;3.23;3.03;;;18.30;93.40;;;;;;5051359;28;20439;-68
2021/05/30 10:46:18;;;;;;;4.17;3.77;;;18.20;93.30;;;;;;5053458;28;20811;-69
2021/05/30 10:49:08;;;;;;;3.13;2.93;;;18.10;93.70;;;;;;5048499;28;20493;-68
2021/05/30 10:51:49;;;;;;;3.57;3.27;;;17.90;94.20;;;;;;5055581;28;20416;-69
2021/05/30 10:54:17;;;;;;;2.97;2.77;;;17.40;95.10;;;;;;5055641;28;20440;-69
2021/05/30 10:56:56;;;;;;;3.40;3.20;;;17.50;95.50;;;;;;5057905;28;20424;-70
2021/05/30 10:59:26;;;;;;;4.60;4.30;;;18.20;93.90;;;;;;5057660;28;20424;-68
2021/05/30 11:01:55;;;;;;;2.90;2.80;;;19.10;92.60;;;;;;5058355;28;20686;-70
2021/05/30 11:04:31;;;;;;;3.33;3.20;;;19.60;91.30;;;;;;5056666;28;20458;-70
2021/05/30 11:06:59;;;;;;;3.60;3.40;;;19.10;91.90;;;;;;5056521;28;20677;-69
2021/05/30 11:09:48;;;;;;;3.20;3.00;;;18.00;93.00;;;;;;5057496;28;20588;-69
2021/05/30 11:12:22;;;;;;;3.70;3.50;;;18.00;93.40;;;;;;5055240;28;20466;-69
2021/05/30 11:15:14;;;;;;;3.00;2.90;;;18.90;90.30;;;;;;5057599;28;20792;-70
2021/05/30 11:17:43;;;;;;;3.30;3.20;;;19.20;89.00;;;;;;5053550;28;20426;-68
2021/05/30 11:20:31;;;;;;;3.60;3.33;;;19.20;89.80;;;;;;5055217;28;20434;-69
2021/05/30 11:23:09;;;;;;;3.93;3.73;;;18.90;90.40;;;;;;5058371;28;20766;-68
2021/05/30 11:25:46;;;;;;;3.23;3.03;;;18.80;90.70;;;;;;5054401;28;20909;-71
2021/05/30 11:28:20;;;;;;;3.60;3.40;;;;;;;;;;5057307;28;20414;-68
2021/05/30 11:30:52;;;;;;;3.10;3.00;;;17.00;92.20;;;;;;5055529;28;20753;-69
2021/05/30 11:33:26;;;;;;;4.53;4.33;;;17.40;92.80;;;;;;5089189;28;20458;-70
2021/05/30 11:36:01;;;;;;;3.40;3.20;;;18.30;91.00;;;;;;5054626;28;20461;-70
2021/05/30 11:38:48;;;;;;;3.43;3.33;;;18.10;91.50;;;;;;5057329;28;20425;-68
2021/05/30 11:41:30;;;;;;;3.57;3.27;;;18.70;91.00;;;;;;5053966;28;20707;-69
2021/05/30 11:44:14;;;;;;;3.50;3.30;;;19.40;91.00;;;;;;5056045;28;20493;-71
2021/05/30 11:46:46;;;;;;;4.10;3.90;;;19.90;87.20;;;;;;5057572;28;20499;-72
2021/05/30 11:49:27;;;;;;;4.17;3.97;;;;;;;;;;5054270;28;20416;-71
2021/05/30 11:52:04;;;;;;;4.97;4.10;;;20.30;85.00;;;;;;5088653;28;20645;-71
2021/05/30 11:54:55;;;;;;;3.53;3.33;;;20.20;84.60;;;;;;5056018;28;20439;-69
2021/05/30 11:57:25;;;;;;;3.47;3.37;;;19.30;87.30;;;;;;5062222;28;20436;-72
2021/05/30 11:59:56;;;;;;;3.77;3.57;;;19.10;87.40;;;;;;5062072;28;20605;-70
2021/05/30 12:02:26;;;;;;;2.97;2.87;;;;;;;;;;5059844;28;20776;-65
2021/05/30 12:05:04;;;;;;;2.80;2.70;;;;;;;;;;5058943;28;20661;-69
2021/05/30 12:07:33;;;;;;;3.80;3.60;;;19.20;88.60;;;;;;5060926;28;20450;-71
2021/05/30 12:10:04;;;;;;;3.67;3.47;;;19.10;88.70;;;;;;5054527;28;20812;-72
2021/05/30 12:12:35;;;;;;;4.20;3.90;;;18.80;89.20;;;;;;5047633;28;20456;-69
2021/05/30 12:15:15;;;;;;;3.40;3.30;;;18.40;90.20;;;;;;5053586;28;20464;-69
2021/05/30 12:17:55;;;;;;;3.10;3.00;;;;;;;;;;5048256;28;20752;-69
2021/05/30 12:20:24;;;;;;;3.10;3.00;;;;;;;;;;5057412;28;20798;-70
2021/05/30 12:22:52;;;;;;;4.07;3.67;;;;;;;;;;5055141;28;20419;-69
2021/05/30 12:25:19;;;;;;;4.00;3.70;;;18.70;88.00;;;;;;5056690;28;20449;-71
2021/05/30 12:27:46;;;;;;;3.20;3.10;;;18.60;88.90;;;;;;5056359;28;20509;-71
2021/05/30 12:30:15;;;;;;;3.50;3.30;;;18.20;90.50;;;;;;5057248;28;20763;-70
2021/05/30 12:32:52;;;;;;;3.40;3.20;;;18.00;90.90;;;;;;5054076;28;20431;-70
2021/05/30 12:36:04;;;;;;;3.10;3.00;;;18.00;90.60;;;;;;5058045;28;20492;-71
2021/05/30 12:38:31;;;;;;;3.17;2.97;;;18.30;88.80;;;;;;5046994;28;20452;-69
2021/05/30 12:41:00;;;;;;;3.30;3.20;;;18.10;90.20;;;;;;5058691;28;20534;-71
2021/05/30 12:43:39;;;;;;;3.37;3.17;;;17.70;90.90;;;;;;5054785;28;20441;-70
2021/05/30 12:46:09;;;;;;;3.23;3.13;;;17.50;91.00;;;;;;5056826;28;20457;-69
2021/05/30 12:48:41;;;;;;;3.00;2.90;;;17.50;91.00;;;;;;5060448;28;20447;-70
2021/05/30 12:51:28;;;;;;;3.30;3.10;;;17.40;91.30;;;;;;5050174;28;20452;-70
2021/05/30 12:53:55;;;;;;;3.37;3.17;;;17.20;91.80;;;;;;5059107;28;20438;-70
2021/05/30 12:56:25;;;;;;;3.40;3.20;;;17.00;92.20;;;;;;5055763;28;20459;-70
2021/05/30 12:59:18;;;;;;;3.30;3.10;;;16.90;92.40;;;;;;5053061;28;20445;-74
2021/05/30 13:01:48;;;;;;;3.20;2.97;;;16.80;91.70;;;;;;5042133;28;20617;-69
2021/05/30 13:04:24;;;;;;;3.30;3.10;;;17.20;91.60;;;;;;5049524;28;20455;-70
2021/05/30 13:07:30;;;;;;;3.80;3.60;;;17.60;90.90;;;;;;5047257;28;20459;-71
2021/05/30 13:10:08;;;;;;;3.03;2.83;;;18.00;90.70;;;;;;5047103;28;20703;-70
2021/05/30 13:12:45;;;;;;;3.20;3.10;;;18.60;89.50;;;;;;5060185;28;20600;-71
2021/05/30 13:15:21;;;;;;;2.87;2.77;;;19.00;88.70;;;;;;5059137;28;20485;-70
2021/05/30 13:17:52;;;;;;;3.33;3.00;;;19.10;85.30;;;;;;5057164;28;20423;-70
2021/05/30 13:20:27;;;;;;;3.97;3.77;;;18.60;85.60;;;;;;5056143;28;20444;-71
2021/05/30 13:23:03;;;;;;;2.80;2.70;;;18.10;87.20;;;;;;5055139;28;20461;-70
2021/05/30 13:25:40;;;;;;;2.83;2.73;;;18.40;85.60;;;;;;5054325;28;20423;-70